Time;durP1;ratioP1;P1;durP2;ratioP2;P2;SDS_P1;SDS_P2;PMS_P1;PMS_P2;Temp;Humidity;BMP_temperature;BMP_pressure;BME280_temperature;BME280_humidity;BME280_pressure;Samples;Min_cycle;Max_cycle;Signal;HPM_P1;HPM_P2
2022/06/29 00:00:00;;;;;;;5.38;4.97;;;;;;;17.96;100.00;96559.75;5072853;28;20203;-52
2022/06/29 00:02:27;;;;;;;5.35;4.95;;;;;;;17.94;100.00;96552.97;5065539;28;20199;-51
2022/06/29 00:04:55;;;;;;;4.72;4.40;;;;;;;17.87;100.00;96543.03;5052783;28;20290;-51
2022/06/29 00:07:21;;;;;;;6.05;5.45;;;;;;;17.86;100.00;96544.03;5052502;28;20223;-52
2022/06/29 00:09:48;;;;;;;5.57;4.57;;;;;;;17.75;100.00;96539.19;5052348;28;20640;-51
2022/06/29 00:12:14;;;;;;;5.25;4.90;;;;;;;17.71;100.00;96548.59;5053991;28;20261;-51
2022/06/29 00:14:42;;;;;;;5.82;5.30;;;;;;;17.66;100.00;96547.53;5063917;28;20250;-51
2022/06/29 00:17:09;;;;;;;6.13;4.90;;;;;;;17.63;100.00;96547.91;5075196;28;20238;-52
2022/06/29 00:19:36;;;;;;;5.55;5.03;;;;;;;17.63;100.00;96542.56;5073560;28;20233;-51
2022/06/29 00:22:05;;;;;;;5.10;4.70;;;;;;;17.61;100.00;96534.72;5060048;28;20226;-52
2022/06/29 00:24:32;;;;;;;5.30;4.90;;;;;;;17.60;100.00;96541.09;5052539;28;20222;-51
2022/06/29 00:26:59;;;;;;;5.32;5.00;;;;;;;17.56;100.00;96537.16;5051568;28;20298;-52
2022/06/29 00:29:26;;;;;;;5.30;4.90;;;;;;;17.55;100.00;96540.78;5053329;28;20704;-52
2022/06/29 00:31:52;;;;;;;6.45;5.32;;;;;;;17.51;100.00;96544.03;5054090;28;20230;-50
2022/06/29 00:34:19;;;;;;;5.63;5.22;;;;;;;17.49;100.00;96543.41;5054584;28;20286;-51
2022/06/29 00:36:46;;;;;;;5.32;4.93;;;;;;;17.46;100.00;96538.44;5054196;28;20272;-51
2022/06/29 00:39:14;;;;;;;5.70;5.20;;;;;;;17.43;100.00;96539.63;5056380;28;20317;-51
2022/06/29 00:41:43;;;;;;;5.70;5.20;;;;;;;17.45;100.00;96545.63;5061231;28;20222;-51
2022/06/29 00:44:09;;;;;;;6.07;5.57;;;;;;;17.44;100.00;96549.31;5055399;28;20276;-51
2022/06/29 00:46:36;;;;;;;6.00;5.50;;;;;;;17.46;100.00;96544.63;5055467;28;20275;-51
2022/06/29 00:49:03;;;;;;;5.68;5.20;;;;;;;17.45;100.00;96553.63;5056041;28;20638;-51
2022/06/29 00:51:31;;;;;;;6.55;5.93;;;;;;;17.43;100.00;96548.47;5056256;28;20329;-51
2022/06/29 00:53:59;;;;;;;6.45;5.95;;;;;;;17.43;100.00;96555.66;5055870;28;20198;-52
2022/06/29 00:56:29;;;;;;;6.32;5.93;;;;;;;17.46;100.00;96555.31;5056029;28;20301;-51
2022/06/29 00:58:57;;;;;;;7.47;5.20;;;;;;;17.48;100.00;96557.78;5056387;28;21167;-52
2022/06/29 01:01:24;;;;;;;5.85;5.40;;;;;;;17.48;100.00;96550.59;5055996;28;20286;-51
2022/06/29 01:03:51;;;;;;;6.13;5.72;;;;;;;17.52;100.00;96549.19;5055355;28;20213;-51
2022/06/29 01:06:18;;;;;;;6.22;5.60;;;;;;;17.53;100.00;96550.88;5055975;28;20279;-51
2022/06/29 01:08:44;;;;;;;5.38;5.05;;;;;;;17.54;100.00;96540.97;5056112;28;20302;-51
2022/06/29 01:11:11;;;;;;;6.40;5.82;;;;;;;17.52;100.00;96538.50;5056009;28;20237;-51
2022/06/29 01:13:43;;;;;;;6.15;5.65;;;;;;;17.48;100.00;96534.53;5055369;28;20278;-51
2022/06/29 01:16:10;;;;;;;5.53;5.13;;;;;;;17.47;100.00;96534.72;5055898;28;20208;-52
2022/06/29 01:18:37;;;;;;;5.55;5.20;;;;;;;17.47;100.00;96537.38;5054839;28;20619;-51
2022/06/29 01:21:06;;;;;;;7.25;6.60;;;;;;;17.49;100.00;96532.69;5055581;28;20651;-51
2022/06/29 01:23:34;;;;;;;7.43;6.80;;;;;;;17.53;100.00;96536.66;5055189;28;20294;-51
2022/06/29 01:26:04;;;;;;;7.47;6.63;;;;;;;17.54;100.00;96533.78;5055800;28;20230;-52
2022/06/29 01:28:31;;;;;;;6.65;6.13;;;;;;;17.56;100.00;96531.78;5055319;28;20246;-51
2022/06/29 01:30:57;;;;;;;6.68;6.18;;;;;;;17.59;100.00;96522.56;5056151;28;20325;-52
2022/06/29 01:33:24;;;;;;;7.57;6.88;;;;;;;17.62;100.00;96519.50;5054720;28;20230;-51
2022/06/29 01:35:51;;;;;;;6.90;6.40;;;;;;;17.64;100.00;96523.63;5055339;28;20243;-51
2022/06/29 01:38:17;;;;;;;7.78;7.18;;;;;;;17.67;100.00;96520.59;5055431;28;20233;-51
2022/06/29 01:40:46;;;;;;;6.55;6.07;;;;;;;17.71;100.00;96521.84;5055945;28;20290;-51
2022/06/29 01:43:13;;;;;;;7.03;6.25;;;;;;;17.73;100.00;96519.00;5056054;28;20294;-51
2022/06/29 01:45:39;;;;;;;6.63;6.03;;;;;;;17.72;100.00;96512.00;5055016;28;20195;-51
2022/06/29 01:48:07;;;;;;;6.03;5.47;;;;;;;17.68;100.00;96519.56;5055306;28;20302;-50
2022/06/29 01:50:34;;;;;;;7.25;6.10;;;;;;;17.66;100.00;96510.91;5054567;28;20569;-51
2022/06/29 01:53:01;;;;;;;7.25;6.63;;;;;;;17.70;100.00;96509.53;5054947;28;20296;-51
2022/06/29 01:55:27;;;;;;;6.93;6.30;;;;;;;17.68;100.00;96506.19;5055110;28;20576;-51
2022/06/29 01:57:55;;;;;;;7.20;6.50;;;;;;;17.63;100.00;96500.59;5054666;28;20314;-52
2022/06/29 02:00:22;;;;;;;6.72;6.13;;;;;;;17.61;100.00;96499.94;5055033;28;20286;-51
2022/06/29 02:02:48;;;;;;;6.75;6.22;;;;;;;17.58;100.00;96505.69;5054910;28;20223;-51
2022/06/29 02:05:15;;;;;;;6.85;6.35;;;;;;;17.55;100.00;96506.03;5055471;28;20261;-52
2022/06/29 02:07:42;;;;;;;7.13;5.95;;;;;;;17.53;100.00;96508.09;5054283;28;20682;-51
2022/06/29 02:10:09;;;;;;;6.85;6.35;;;;;;;17.48;100.00;96499.78;5054952;28;20290;-52
2022/06/29 02:12:36;;;;;;;6.55;6.05;;;;;;;17.46;100.00;96507.19;5055222;28;20230;-51
2022/06/29 02:15:05;;;;;;;8.57;7.80;;;;;;;17.48;100.00;96509.66;5054302;28;20295;-51
2022/06/29 02:17:33;;;;;;;7.78;7.07;;;;;;;17.50;100.00;96510.31;5054703;28;20204;-52
2022/06/29 02:20:00;;;;;;;8.07;7.38;;;;;;;17.53;100.00;96505.41;5054816;28;20275;-51
2022/06/29 02:22:26;;;;;;;7.88;7.28;;;;;;;17.53;100.00;96497.38;5053913;28;20239;-51
2022/06/29 02:24:53;;;;;;;8.20;7.45;;;;;;;17.52;100.00;96495.72;5059344;28;20203;-52
2022/06/29 02:27:19;;;;;;;7.72;7.18;;;;;;;17.54;100.00;96498.19;5075945;28;20183;-52
2022/06/29 02:29:46;;;;;;;7.07;6.57;;;;;;;17.56;100.00;96497.03;5072597;28;20191;-52
2022/06/29 02:34:58;;;;;;;8.05;7.45;;;;;;;17.60;100.00;96508.19;5054833;28;20296;-51
2022/06/29 02:37:25;;;;;;;8.15;7.43;;;;;;;17.61;100.00;96502.63;5054860;28;20210;-51
2022/06/29 02:39:51;;;;;;;7.07;6.57;;;;;;;17.63;100.00;96505.94;5061384;28;20257;-52
2022/06/29 02:42:19;;;;;;;7.00;6.35;;;;;;;17.62;100.00;96501.63;5075489;28;20209;-50
2022/06/29 02:44:46;;;;;;;6.47;5.97;;;;;;;17.60;100.00;96501.00;5075022;28;20218;-52
2022/06/29 02:47:14;;;;;;;7.85;6.45;;;;;;;17.56;100.00;96501.53;5075208;28;20206;-51
2022/06/29 02:49:42;;;;;;;7.82;7.18;;;;;;;17.47;100.00;96500.78;5074448;28;20198;-52
2022/06/29 02:52:09;;;;;;;6.63;6.03;;;;;;;17.43;100.00;96502.19;5074924;28;20188;-53
2022/06/29 02:54:36;;;;;;;6.95;6.45;;;;;;;17.42;100.00;96497.88;5076860;28;20246;-51
2022/06/29 02:57:03;;;;;;;6.97;6.25;;;;;;;17.33;100.00;96504.34;5076336;28;20199;-52
2022/06/29 02:59:30;;;;;;;6.70;6.10;;;;;;;17.24;100.00;96503.63;5076766;28;20199;-51
2022/06/29 03:01:56;;;;;;;6.38;5.97;;;;;;;17.20;100.00;96494.34;5075258;28;20195;-51
2022/06/29 03:04:24;;;;;;;7.20;6.47;;;;;;;17.16;100.00;96497.56;5076401;28;20215;-52
2022/06/29 03:06:51;;;;;;;6.40;5.82;;;;;;;17.14;100.00;96496.94;5073011;28;20256;-52
2022/06/29 03:09:18;;;;;;;6.93;6.45;;;;;;;17.14;100.00;96496.94;5054693;28;20207;-52
2022/06/29 03:11:44;;;;;;;6.88;6.38;;;;;;;17.19;100.00;96486.50;5053697;28;20245;-52
2022/06/29 03:14:11;;;;;;;7.65;6.85;;;;;;;17.22;100.00;96488.78;5053899;28;20231;-52
2022/06/29 03:16:38;;;;;;;7.22;6.63;;;;;;;17.15;100.00;96494.06;5056207;28;20230;-51
2022/06/29 03:19:04;;;;;;;7.10;6.50;;;;;;;17.10;100.00;96484.97;5072679;28;20278;-51
2022/06/29 03:21:32;;;;;;;6.53;6.10;;;;;;;17.09;100.00;96488.63;5072818;28;20214;-50
2022/06/29 03:23:59;;;;;;;6.85;6.35;;;;;;;17.08;100.00;96484.31;5068339;28;20275;-52
2022/06/29 03:26:25;;;;;;;7.50;6.88;;;;;;;17.05;100.00;96490.84;5070904;28;20331;-51
2022/06/29 03:28:54;;;;;;;6.70;6.18;;;;;;;17.01;100.00;96486.91;5074589;28;20195;-50
2022/06/29 03:31:20;;;;;;;6.78;6.18;;;;;;;17.04;100.00;96486.53;5074369;28;20211;-51
2022/06/29 03:33:47;;;;;;;7.13;6.43;;;;;;;17.03;100.00;96484.88;5076480;28;20202;-51
2022/06/29 03:36:14;;;;;;;6.88;5.90;;;;;;;17.02;100.00;96487.72;5075534;28;20210;-52
2022/06/29 03:38:42;;;;;;;6.18;5.78;;;;;;;17.01;100.00;96480.72;5076225;28;20226;-51
2022/06/29 03:41:08;;;;;;;6.28;5.70;;;;;;;17.00;100.00;96481.75;5071851;28;20262;-51
2022/06/29 03:43:35;;;;;;;7.20;6.55;;;;;;;16.99;100.00;96485.44;5062375;28;20715;-51
2022/06/29 03:46:02;;;;;;;6.82;6.15;;;;;;;16.98;100.00;96486.44;5065727;28;20206;-51
2022/06/29 03:48:28;;;;;;;6.90;6.13;;;;;;;16.95;100.00;96484.16;5075368;28;20203;-51
2022/06/29 03:50:55;;;;;;;6.70;6.07;;;;;;;16.95;100.00;96482.31;5075940;28;20235;-52
2022/06/29 03:53:22;;;;;;;6.57;6.00;;;;;;;16.95;100.00;96482.31;5063518;28;20230;-52
2022/06/29 03:55:50;;;;;;;6.53;5.80;;;;;;;16.97;100.00;96482.13;5071738;28;20191;-52
2022/06/29 03:58:17;;;;;;;7.00;6.37;;;;;;;16.98;100.00;96478.44;5074657;28;20183;-53
2022/06/29 04:00:43;;;;;;;6.43;5.93;;;;;;;17.01;100.00;96481.56;5073729;28;20230;-52
2022/06/29 04:03:10;;;;;;;6.43;5.82;;;;;;;17.05;100.00;96476.66;5055131;28;20723;-51
2022/06/29 04:05:36;;;;;;;6.75;6.20;;;;;;;17.05;100.00;96482.00;5051690;28;20210;-52
2022/06/29 04:08:03;;;;;;;6.25;5.75;;;;;;;17.05;100.00;96476.66;5053226;28;20226;-52
2022/06/29 04:10:30;;;;;;;6.82;6.30;;;;;;;17.05;100.00;96487.34;5052204;28;20543;-52
2022/06/29 04:12:58;;;;;;;6.03;5.53;;;;;;;17.06;100.00;96489.84;5052204;28;20222;-51
2022/06/29 04:15:24;;;;;;;6.53;5.93;;;;;;;17.05;100.00;96482.00;5052022;28;20213;-52
2022/06/29 04:17:51;;;;;;;8.20;5.97;;;;;;;17.06;100.00;96486.34;5052663;28;20294;-51
2022/06/29 04:23:01;;;;;;;6.28;5.80;;;;;;;17.11;100.00;96487.44;5051866;28;20195;-51
2022/06/29 04:25:27;;;;;;;6.90;6.28;;;;;;;17.16;100.00;96484.19;5052234;28;20207;-52
2022/06/29 04:27:54;;;;;;;6.68;6.22;;;;;;;17.20;100.00;96480.97;5052565;28;20190;-51
2022/06/29 04:30:27;;;;;;;6.30;5.80;;;;;;;17.24;100.00;96486.78;5052119;28;20298;-52
2022/06/29 04:32:54;;;;;;;6.63;6.18;;;;;;;17.27;100.00;96489.06;5052436;28;20183;-51
2022/06/29 04:35:20;;;;;;;6.93;6.20;;;;;;;17.31;100.00;96482.31;5052259;28;20277;-52
2022/06/29 04:37:47;;;;;;;6.55;6.05;;;;;;;17.35;100.00;96478.28;5052544;28;20195;-51
2022/06/29 04:40:14;;;;;;;6.55;6.05;;;;;;;17.36;100.00;96488.75;5068802;28;20211;-52
2022/06/29 04:42:40;;;;;;;5.93;5.53;;;;;;;17.42;100.00;96487.19;5075045;28;20206;-52
2022/06/29 04:46:19;;;;;;;8.73;6.72;;;;;;;17.48;100.00;96493.59;5072109;28;20200;-52
2022/06/29 04:48:00;;;;;;;6.35;5.95;;;;;;;17.56;100.00;96491.69;5070144;28;20203;-51
2022/06/29 04:50:29;;;;;;;6.57;6.10;;;;;;;17.63;100.00;96495.25;5069240;28;20239;-51
2022/06/29 04:52:56;;;;;;;6.75;6.18;;;;;;;17.65;100.00;96490.53;5066773;28;20241;-51
2022/06/29 04:55:25;;;;;;;6.90;6.35;;;;;;;17.73;100.00;96492.25;5068397;28;20202;-51
2022/06/29 04:57:52;;;;;;;8.00;7.30;;;;;;;17.76;100.00;96489.19;5075007;28;20207;-50
2022/06/29 05:00:18;;;;;;;7.13;6.63;;;;;;;17.81;100.00;96495.66;5074792;28;20214;-51
2022/06/29 05:02:45;;;;;;;8.00;7.28;;;;;;;17.79;100.00;96495.00;5076184;28;20183;-50
2022/06/29 05:05:13;;;;;;;7.45;6.90;;;;;;;17.84;100.00;96489.91;5077917;28;20175;-51
2022/06/29 05:07:40;;;;;;;7.03;6.53;;;;;;;17.87;100.00;96500.22;5077674;28;20176;-51
2022/06/29 05:10:08;;;;;;;8.02;7.30;;;;;;;17.89;100.00;96494.66;5073256;28;20262;-50
2022/06/29 05:12:38;;;;;;;7.47;6.78;;;;;;;17.93;100.00;96487.91;5075242;28;20207;-50
2022/06/29 05:15:05;;;;;;;7.65;7.05;;;;;;;17.95;100.00;96491.25;5076782;28;20180;-51
2022/06/29 05:17:36;;;;;;;8.23;7.60;;;;;;;17.95;100.00;96493.91;5077417;28;20183;-51
2022/06/29 05:20:04;;;;;;;7.45;6.75;;;;;;;17.99;100.00;96497.88;5065936;28;20208;-52
2022/06/29 05:22:31;;;;;;;7.97;7.18;;;;;;;18.00;100.00;96487.97;5051634;28;20233;-51
2022/06/29 05:24:58;;;;;;;7.53;6.90;;;;;;;18.02;100.00;96493.97;5052006;28;20223;-52
2022/06/29 05:27:25;;;;;;;8.38;7.65;;;;;;;18.04;100.00;96487.41;5055246;28;20199;-52
2022/06/29 05:29:51;;;;;;;8.05;7.25;;;;;;;18.07;100.00;96495.03;5055420;28;20227;-52
2022/06/29 05:32:18;;;;;;;8.25;7.38;;;;;;;18.09;100.00;96486.81;5054796;28;20695;-51
2022/06/29 05:34:45;;;;;;;8.30;7.60;;;;;;;18.12;100.00;96483.75;5055190;28;20236;-51
2022/06/29 05:37:11;;;;;;;7.82;7.20;;;;;;;18.10;100.00;96496.53;5054835;28;20209;-52
2022/06/29 05:39:39;;;;;;;7.20;6.65;;;;;;;18.14;100.00;96484.41;5054963;28;20314;-52
2022/06/29 05:42:06;;;;;;;8.25;7.22;;;;;;;18.17;100.00;96492.03;5054795;28;20205;-52
2022/06/29 05:44:33;;;;;;;7.82;7.05;;;;;;;18.17;100.00;96484.03;5055332;28;20290;-52
2022/06/29 05:47:00;;;;;;;7.40;6.43;;;;;;;18.19;100.00;96492.66;5054851;28;20299;-52
2022/06/29 05:49:27;;;;;;;8.25;6.85;;;;;;;18.24;100.00;96499.13;5055229;28;20219;-51
2022/06/29 05:51:54;;;;;;;6.97;6.38;;;;;;;18.27;100.00;96497.88;5054368;28;20318;-52
2022/06/29 05:54:21;;;;;;;7.53;6.55;;;;;;;18.33;100.00;96505.13;5054442;28;20207;-51
2022/06/29 05:56:49;;;;;;;6.63;6.20;;;;;;;18.42;100.00;96498.63;5055013;28;20293;-52
2022/06/29 05:59:16;;;;;;;7.40;6.03;;;;;;;18.59;100.00;96499.19;5054672;28;20238;-52
2022/06/29 06:01:42;;;;;;;6.93;6.38;;;;;;;18.67;100.00;96507.88;5054090;28;20210;-52
2022/06/29 06:04:09;;;;;;;6.55;6.05;;;;;;;18.75;100.00;96510.41;5054708;28;20195;-51
2022/06/29 06:06:36;;;;;;;6.47;6.03;;;;;;;19.08;100.00;96507.91;5053520;28;20712;-52
2022/06/29 06:09:02;;;;;;;6.65;6.07;;;;;;;19.50;100.00;96504.16;5053880;28;20278;-51
2022/06/29 06:11:29;;;;;;;5.90;5.50;;;;;;;19.91;100.00;96500.56;5054352;28;20207;-52
2022/06/29 06:13:58;;;;;;;5.82;5.32;;;;;;;20.32;100.00;96498.53;5054331;28;20290;-52
2022/06/29 06:16:25;;;;;;;5.35;4.85;;;;;;;20.73;98.13;96491.03;5054853;28;20299;-53
2022/06/29 06:18:51;;;;;;;5.70;5.20;;;;;;;21.13;93.30;96489.09;5054273;28;20214;-51
2022/06/29 06:21:18;;;;;;;6.95;5.90;;;;;;;21.45;86.01;96494.56;5055513;28;20651;-51
2022/06/29 06:23:45;;;;;;;5.47;4.97;;;;;;;21.60;85.19;96493.25;5055664;28;20230;-52
2022/06/29 06:26:11;;;;;;;5.00;4.20;;;;;;;21.99;83.66;96492.19;5055968;28;20207;-50
2022/06/29 06:28:39;;;;;;;5.25;4.45;;;;;;;22.33;84.06;96493.59;5056775;28;20249;-52
2022/06/29 06:31:08;;;;;;;4.43;4.13;;;;;;;22.62;81.45;96498.31;5054067;28;20639;-51
2022/06/29 06:33:34;;;;;;;5.30;4.80;;;;;;;22.85;76.50;96494.19;5054427;28;20202;-52
2022/06/29 06:36:01;;;;;;;5.10;4.40;;;;;;;22.74;74.18;96493.84;5053996;28;20207;-53
2022/06/29 06:38:28;;;;;;;4.70;4.38;;;;;;;22.87;76.84;96494.78;5053942;28;20211;-52
2022/06/29 06:43:39;;;;;;;4.90;4.50;;;;;;;23.26;73.41;96494.34;5053449;28;20321;-52
2022/06/29 06:46:05;;;;;;;4.88;4.47;;;;;;;23.20;72.88;96497.94;5053302;28;20195;-53
2022/06/29 06:48:35;;;;;;;6.07;4.00;;;;;;;23.40;76.83;96501.22;5052998;28;20860;-53
2022/06/29 06:51:01;;;;;;;4.38;4.00;;;;;;;23.55;72.85;96504.38;5052525;28;20306;-52
2022/06/29 06:53:28;;;;;;;4.68;4.25;;;;;;;23.79;72.68;96499.91;5064385;28;20250;-53
2022/06/29 06:55:54;;;;;;;4.45;4.15;;;;;;;23.99;71.62;96494.19;5072429;28;20196;-52
2022/06/29 06:58:21;;;;;;;5.18;4.68;;;;;;;23.94;69.13;96497.63;5074189;28;20206;-52
2022/06/29 07:00:47;;;;;;;5.55;4.32;;;;;;;24.10;70.87;96498.81;5070505;28;20238;-52
2022/06/29 07:03:14;;;;;;;5.13;4.03;;;;;;;24.28;71.04;96496.06;5053285;28;20696;-52
2022/06/29 07:05:42;;;;;;;4.30;4.00;;;;;;;24.53;69.96;96491.28;5052933;28;20223;-52
2022/06/29 07:08:11;;;;;;;4.43;4.07;;;;;;;24.69;69.14;96495.97;5053018;28;20226;-53
2022/06/29 07:10:38;;;;;;;5.00;3.60;;;;;;;24.87;68.92;96491.56;5053829;28;20257;-52
2022/06/29 07:13:05;;;;;;;4.22;3.97;;;;;;;24.92;68.17;96491.66;5053166;28;20639;-53
2022/06/29 07:15:31;;;;;;;5.90;3.80;;;;;;;24.81;67.19;96484.34;5051812;28;20278;-53
2022/06/29 07:17:58;;;;;;;4.07;3.70;;;;;;;25.00;66.17;96492.13;5053014;28;20589;-52
2022/06/29 07:20:30;;;;;;;5.15;4.03;;;;;;;24.78;70.43;96493.75;5053113;28;20219;-52
2022/06/29 07:22:58;;;;;;;4.68;4.07;;;;;;;24.75;66.71;96488.81;5052728;28;20195;-54
2022/06/29 07:25:25;;;;;;;4.35;3.95;;;;;;;24.77;69.79;96486.69;5052866;28;20226;-52
2022/06/29 07:27:52;;;;;;;4.47;3.35;;;;;;;24.86;69.33;96495.31;5052246;28;20703;-51
2022/06/29 07:30:20;;;;;;;3.78;3.50;;;;;;;25.23;69.10;96493.97;5052625;28;20266;-54
2022/06/29 07:32:47;;;;;;;5.70;3.58;;;;;;;25.34;67.01;96498.53;5052233;28;20199;-52
2022/06/29 07:35:13;;;;;;;5.05;3.03;;;;;;;25.48;66.54;96483.66;5052136;28;20596;-52
2022/06/29 07:37:40;;;;;;;5.53;3.67;;;;;;;25.61;64.77;96496.94;5052414;28;20294;-53
2022/06/29 07:40:09;;;;;;;3.63;3.30;;;;;;;25.80;63.07;96503.00;5070760;28;20225;-53
2022/06/29 07:42:36;;;;;;;4.47;3.83;;;;;;;25.53;63.33;96497.34;5073098;28;20191;-52
2022/06/29 07:45:03;;;;;;;3.78;3.53;;;;;;;25.72;61.70;96493.38;5053721;28;20203;-51
2022/06/29 07:47:30;;;;;;;3.92;3.45;;;;;;;25.39;62.90;96495.13;5065180;28;20211;-52
2022/06/29 07:49:58;;;;;;;3.55;3.30;;;;;;;24.83;66.36;96493.06;5072758;28;20239;-53
2022/06/29 07:52:24;;;;;;;4.20;3.40;;;;;;;25.06;67.45;96495.75;5071370;28;20271;-52
2022/06/29 07:54:51;;;;;;;3.53;3.22;;;;;;;25.18;67.02;96497.41;5051989;28;20291;-52
2022/06/29 07:57:21;;;;;;;3.30;2.95;;;;;;;24.74;68.39;96504.22;5052384;28;20203;-53
2022/06/29 07:59:49;;;;;;;5.68;3.60;;;;;;;24.59;65.55;96494.91;5052021;28;20261;-52
2022/06/29 08:02:16;;;;;;;3.97;3.67;;;;;;;24.29;65.95;96497.72;5052118;28;20694;-52
2022/06/29 08:04:42;;;;;;;4.88;3.70;;;;;;;23.76;69.40;96501.19;5052211;28;20555;-52
2022/06/29 08:07:09;;;;;;;4.00;3.70;;;;;;;23.98;68.28;96503.38;5051730;28;20199;-52
2022/06/29 08:09:35;;;;;;;3.95;3.60;;;;;;;23.90;71.98;96498.28;5052123;28;20215;-52
2022/06/29 08:12:02;;;;;;;3.55;3.30;;;;;;;24.35;70.53;96498.66;5052604;28;20242;-53
2022/06/29 08:14:30;;;;;;;3.60;3.40;;;;;;;24.61;71.53;96495.53;5051436;28;20226;-52
2022/06/29 08:16:57;;;;;;;2.88;2.78;;;;;;;24.97;68.11;96491.78;5052022;28;20213;-53
2022/06/29 08:19:23;;;;;;;3.75;3.45;;;;;;;25.32;65.68;96492.56;5051891;28;20401;-53
2022/06/29 08:21:50;;;;;;;4.13;3.20;;;;;;;25.50;64.57;96492.38;5051020;28;20731;-54
2022/06/29 08:24:17;;;;;;;2.83;2.63;;;;;;;25.97;64.21;96492.25;5051721;28;20223;-53
2022/06/29 08:26:43;;;;;;;3.90;3.50;;;;;;;25.68;59.90;96489.50;5051365;28;20667;-53
2022/06/29 08:29:11;;;;;;;3.53;3.22;;;;;;;25.07;61.79;96492.00;5051907;28;20282;-52
2022/06/29 08:31:39;;;;;;;3.33;3.03;;;;;;;24.54;64.23;96490.25;5051560;28;20230;-53
2022/06/29 08:34:06;;;;;;;5.72;2.90;;;;;;;24.08;66.74;96490.13;5052085;28;20203;-52
2022/06/29 08:36:32;;;;;;;3.47;3.28;;;;;;;23.71;69.01;96503.75;5051352;28;20616;-53
2022/06/29 08:39:00;;;;;;;4.43;3.50;;;;;;;23.59;66.97;96496.66;5051845;28;20207;-53
2022/06/29 08:41:27;;;;;;;5.20;3.28;;;;;;;23.50;72.25;96496.13;5051949;28;20231;-52
2022/06/29 08:43:54;;;;;;;3.63;3.30;;;;;;;23.93;71.80;96487.03;5051643;28;20286;-52
2022/06/29 08:46:21;;;;;;;5.43;3.28;;;;;;;24.48;68.41;96484.94;5051114;28;20230;-51
2022/06/29 08:48:50;;;;;;;5.72;3.10;;;;;;;24.87;67.26;96486.16;5051638;28;20293;-53
2022/06/29 08:51:20;;;;;;;3.25;2.95;;;;;;;25.33;64.33;96490.69;5050611;28;20228;-53
2022/06/29 08:53:47;;;;;;;2.90;2.70;;;;;;;25.79;60.88;96489.72;5051293;28;20242;-52
2022/06/29 08:56:13;;;;;;;4.60;3.30;;;;;;;25.73;60.40;96486.09;5053263;28;20195;-52
2022/06/29 08:58:41;;;;;;;4.20;3.13;;;;;;;25.35;62.38;96489.38;5053603;28;20195;-52
2022/06/29 09:01:09;;;;;;;3.40;3.00;;;;;;;25.22;62.10;96484.22;5056342;28;20260;-53
2022/06/29 09:03:35;;;;;;;2.95;2.75;;;;;;;24.88;61.95;96488.59;5055448;28;20620;-53
2022/06/29 09:06:06;;;;;;;2.75;2.58;;;;;;;24.40;65.06;96483.41;5055696;28;20235;-52
2022/06/29 09:08:33;;;;;;;5.20;3.50;;;;;;;24.70;64.88;96486.00;5078047;28;20528;-52
2022/06/29 09:11:23;;;;;;;5.38;2.90;;;;;;;25.16;67.34;96479.75;5078425;28;20183;-53
2022/06/29 09:14:08;;;;;;;3.55;2.92;;;;;;;25.70;62.60;96484.69;5064570;28;20195;-54
2022/06/29 09:16:51;;;;;;;3.30;3.00;;;;;;;25.82;61.97;96470.28;5055312;28;20206;-53
2022/06/29 09:19:17;;;;;;;3.00;2.80;;;;;;;26.10;63.23;96472.94;5055491;28;20234;-52
2022/06/29 09:21:46;;;;;;;5.07;3.00;;;;;;;26.13;60.22;96480.59;5055221;28;20233;-53
2022/06/29 09:24:15;;;;;;;2.75;2.55;;;;;;;25.73;61.73;96469.81;5055032;28;20599;-52
2022/06/29 09:26:41;;;;;;;3.35;2.67;;;;;;;25.52;62.02;96474.03;5055274;28;20247;-52
2022/06/29 09:29:13;;;;;;;3.97;3.00;;;;;;;25.44;62.63;96473.53;5054960;28;20217;-53
2022/06/29 09:31:40;;;;;;;4.50;3.55;;;;;;;25.36;60.60;96474.78;5054256;28;20203;-51
2022/06/29 09:34:21;;;;;;;5.55;3.22;;;;;;;25.18;63.85;96472.22;5054254;28;20203;-52
2022/06/29 09:36:56;;;;;;;3.55;2.80;;;;;;;24.82;66.41;96476.00;5054344;28;20655;-53
2022/06/29 09:39:33;;;;;;;3.17;2.97;;;;;;;24.66;68.38;96477.53;5054178;28;20222;-53
2022/06/29 09:42:00;;;;;;;4.53;3.25;;;;;;;24.43;65.06;96474.84;5054024;28;20242;-52
2022/06/29 09:44:26;;;;;;;3.17;2.97;;;;;;;24.28;67.77;96480.69;5053965;28;20532;-53
2022/06/29 09:46:56;;;;;;;3.10;2.90;;;;;;;24.18;68.61;96482.31;5053726;28;20290;-52
2022/06/29 09:49:25;;;;;;;4.25;2.97;;;;;;;24.04;69.81;96483.53;5054516;28;20203;-52
2022/06/29 09:51:56;;;;;;;3.60;3.30;;;;;;;24.03;69.30;96485.41;5053570;28;20239;-52
2022/06/29 09:54:26;;;;;;;3.80;3.40;;;;;;;23.83;69.56;96474.09;5054587;28;20187;-52
2022/06/29 09:56:54;;;;;;;3.13;2.97;;;;;;;23.81;68.65;96469.97;5054214;28;20281;-52
2022/06/29 10:02:34;;;;;;;5.18;3.55;;;;;;;23.66;71.80;96467.69;5054712;28;20298;-52
2022/06/29 10:05:00;;;;;;;6.05;4.85;;;;;;;24.93;70.86;96458.16;5053683;28;20294;-52
2022/06/29 10:07:29;;;;;;;3.75;3.17;;;;;;;25.48;68.43;96461.19;5054110;28;20230;-54
2022/06/29 10:09:56;;;;;;;3.88;3.58;;;;;;;25.86;61.68;96452.47;5054196;28;20206;-52
2022/06/29 10:15:15;;;;;;;3.42;2.88;;;;;;;26.84;59.84;96449.22;5032285;28;20203;-51
2022/06/29 10:17:51;;;;;;;3.22;2.53;;;;;;;27.32;58.08;96452.03;5055240;28;20294;-51
2022/06/29 10:20:30;;;;;;;3.47;3.17;;;;;;;27.42;58.26;96444.00;5054604;28;20198;-52
2022/06/29 10:23:00;;;;;;;3.08;2.58;;;;;;;27.11;53.27;96445.53;5053788;28;20261;-53
2022/06/29 10:25:28;;;;;;;2.97;2.78;;;;;;;26.75;55.75;96448.00;5053802;28;20558;-53
2022/06/29 10:28:10;;;;;;;3.45;2.92;;;;;;;27.04;54.69;96441.34;5054332;28;20221;-51
2022/06/29 10:30:37;;;;;;;3.60;3.28;;;;;;;27.34;55.77;96444.47;5053520;28;20536;-53
2022/06/29 10:33:34;;;;;;;2.78;2.38;;;;;;;27.67;54.84;96451.66;5053289;28;20282;-52
2022/06/29 10:36:04;;;;;;;2.85;2.47;;;;;;;27.73;55.16;96447.09;5047373;28;20270;-53
2022/06/29 10:38:36;;;;;;;3.03;2.40;;;;;;;27.69;54.91;96441.38;5053449;28;20195;-52
2022/06/29 10:41:08;;;;;;;3.30;2.45;;;;;;;28.00;55.22;96437.03;5053209;28;20309;-54
2022/06/29 10:43:37;;;;;;;5.45;2.33;;;;;;;28.08;52.16;96429.28;5053550;28;20290;-53
2022/06/29 10:46:03;;;;;;;2.40;2.03;;;;;;;28.27;51.71;96432.41;5053267;28;20203;-52
2022/06/29 10:48:31;;;;;;;3.40;2.33;;;;;;;28.43;53.20;96428.75;5053342;28;20600;-52
2022/06/29 10:50:58;;;;;;;3.28;2.53;;;;;;;28.00;51.13;96429.72;5052922;28;20262;-51
2022/06/29 10:53:25;;;;;;;2.80;2.30;;;;;;;28.10;52.92;96420.84;5053035;28;20199;-52
2022/06/29 10:55:55;;;;;;;3.70;2.50;;;;;;;28.04;51.26;96419.97;5053553;28;20201;-52
2022/06/29 10:58:23;;;;;;;4.93;2.45;;;;;;;28.27;51.40;96418.81;5053044;28;20199;-52
2022/06/29 11:00:52;;;;;;;2.50;2.30;;;;;;;28.16;47.86;96419.84;5052971;28;20309;-52
2022/06/29 11:03:20;;;;;;;2.47;2.30;;;;;;;27.81;47.71;96422.19;5053539;28;20207;-52
2022/06/29 11:14:05;;;;;;;2.30;2.10;;;;;;;28.24;49.77;96413.06;5052841;28;20259;-53
2022/06/29 11:16:36;;;;;;;3.72;2.10;;;;;;;28.43;48.94;96419.75;5053118;28;20253;-53
2022/06/29 11:19:03;;;;;;;2.00;1.80;;;;;;;28.30;47.40;96410.16;5053048;28;20187;-52
2022/06/29 11:21:30;;;;;;;2.40;2.20;;;;;;;28.63;49.87;96404.41;5052237;28;20302;-52
2022/06/29 11:24:04;;;;;;;3.35;2.22;;;;;;;28.82;49.65;96398.53;5052786;28;20295;-52
2022/06/29 11:26:33;;;;;;;2.38;2.03;;;;;;;28.92;48.91;96398.59;5055671;28;20249;-51
2022/06/29 11:29:01;;;;;;;2.95;2.65;;;;;;;29.08;48.77;96401.16;5054744;28;20203;-52
2022/06/29 11:31:28;;;;;;;5.88;2.15;;;;;;;29.20;50.63;96398.19;5054707;28;20203;-53
2022/06/29 11:33:56;;;;;;;3.28;2.08;;;;;;;29.01;48.50;96395.13;5053826;28;20299;-52
2022/06/29 11:36:25;;;;;;;2.17;2.08;;;;;;;28.72;50.08;96403.94;5054384;28;20222;-54
2022/06/29 11:38:52;;;;;;;2.20;2.00;;;;;;;28.44;50.51;96395.03;5061421;28;20230;-53
2022/06/29 11:41:20;;;;;;;3.00;2.10;;;;;;;28.02;49.01;96400.34;5061341;28;20667;-54
2022/06/29 11:43:59;;;;;;;3.08;2.10;;;;;;;27.61;48.96;96399.16;5053253;28;20282;-53
2022/06/29 11:46:27;;;;;;;2.42;1.80;;;;;;;27.37;49.36;96405.94;5063059;28;20209;-53
2022/06/29 11:51:48;;;;;;;3.17;2.00;;;;;;;27.83;52.16;96403.72;5056480;28;20710;-53
2022/06/29 11:54:15;;;;;;;2.78;1.80;;;;;;;28.12;51.57;96397.78;5053797;28;20286;-52
2022/06/29 11:56:44;;;;;;;2.53;2.28;;;;;;;28.37;51.23;96393.63;5052867;28;20234;-53